sensor_id;sensor_type;location;lat;lon;timestamp;P1;durP1;ratioP1;P2;durP2;ratioP2
9280;SDS011;4679;47.966;7.958;2023-12-22T07:17:46;2.13;;;0.60;;
9280;SDS011;4679;47.966;7.958;2023-12-22T07:19:46;1.83;;;0.37;;
9280;SDS011;4679;47.966;7.958;2023-12-22T07:21:48;1.07;;;0.40;;
9280;SDS011;4679;47.966;7.958;2023-12-22T07:23:49;1.83;;;0.50;;
9280;SDS011;4679;47.966;7.958;2023-12-22T07:25:51;1.90;;;0.40;;
9280;SDS011;4679;47.966;7.958;2023-12-22T07:27:52;2.40;;;0.70;;
9280;SDS011;4679;47.966;7.958;2023-12-22T07:29:53;6.03;;;0.40;;
9280;SDS011;4679;47.966;7.958;2023-12-22T07:31:56;1.10;;;0.47;;
9280;SDS011;4679;47.966;7.958;2023-12-22T07:33:57;2.40;;;0.50;;
9280;SDS011;4679;47.966;7.958;2023-12-22T07:35:58;2.50;;;0.40;;
9280;SDS011;4679;47.966;7.958;2023-12-22T07:37:59;2.53;;;0.73;;
9280;SDS011;4679;47.966;7.958;2023-12-22T07:40:03;4.53;;;0.77;;
9280;SDS011;4679;47.966;7.958;2023-12-22T07:42:05;3.90;;;0.40;;
9280;SDS011;4679;47.966;7.958;2023-12-22T07:44:07;2.33;;;0.60;;
9280;SDS011;4679;47.966;7.958;2023-12-22T07:46:16;4.00;;;0.93;;
9280;SDS011;4679;47.966;7.958;2023-12-22T07:48:19;2.43;;;0.60;;
9280;SDS011;4679;47.966;7.958;2023-12-22T07:50:20;1.37;;;0.40;;
9280;SDS011;4679;47.966;7.958;2023-12-22T07:52:22;3.47;;;0.80;;
9280;SDS011;4679;47.966;7.958;2023-12-22T07:54:23;4.07;;;0.80;;
9280;SDS011;4679;47.966;7.958;2023-12-22T07:56:25;3.23;;;0.57;;
9280;SDS011;4679;47.966;7.958;2023-12-22T07:58:27;3.20;;;0.90;;
9280;SDS011;4679;47.966;7.958;2023-12-22T08:00:28;0.90;;;0.50;;
9280;SDS011;4679;47.966;7.958;2023-12-22T08:02:30;2.73;;;0.50;;
9280;SDS011;4679;47.966;7.958;2023-12-22T08:04:32;4.80;;;1.20;;
9280;SDS011;4679;47.966;7.958;2023-12-22T08:06:33;4.40;;;0.93;;
9280;SDS011;4679;47.966;7.958;2023-12-22T08:08:36;1.67;;;0.50;;
9280;SDS011;4679;47.966;7.958;2023-12-22T08:10:37;2.10;;;0.60;;
9280;SDS011;4679;47.966;7.958;2023-12-22T08:12:39;2.63;;;0.80;;
9280;SDS011;4679;47.966;7.958;2023-12-22T08:14:41;6.17;;;0.80;;
9280;SDS011;4679;47.966;7.958;2023-12-22T08:16:42;3.93;;;0.70;;
9280;SDS011;4679;47.966;7.958;2023-12-22T08:18:44;2.83;;;1.10;;
9280;SDS011;4679;47.966;7.958;2023-12-22T08:20:47;4.10;;;0.50;;
9280;SDS011;4679;47.966;7.958;2023-12-22T08:22:49;3.27;;;1.00;;
9280;SDS011;4679;47.966;7.958;2023-12-22T08:24:52;5.10;;;0.83;;
9280;SDS011;4679;47.966;7.958;2023-12-22T08:26:54;3.60;;;1.90;;
9280;SDS011;4679;47.966;7.958;2023-12-22T08:28:54;4.47;;;0.50;;
9280;SDS011;4679;47.966;7.958;2023-12-22T08:30:56;3.03;;;0.40;;
9280;SDS011;4679;47.966;7.958;2023-12-22T08:32:57;1.37;;;0.40;;
9280;SDS011;4679;47.966;7.958;2023-12-22T08:34:58;5.43;;;0.80;;
9280;SDS011;4679;47.966;7.958;2023-12-22T08:37:01;1.50;;;0.40;;
9280;SDS011;4679;47.966;7.958;2023-12-22T08:39:02;2.00;;;0.67;;
9280;SDS011;4679;47.966;7.958;2023-12-22T08:41:03;2.60;;;0.40;;
9280;SDS011;4679;47.966;7.958;2023-12-22T08:43:05;2.87;;;0.50;;
9280;SDS011;4679;47.966;7.958;2023-12-22T08:45:07;2.57;;;0.50;;
9280;SDS011;4679;47.966;7.958;2023-12-22T08:47:09;1.80;;;0.50;;
9280;SDS011;4679;47.966;7.958;2023-12-22T08:49:10;3.90;;;0.50;;
9280;SDS011;4679;47.966;7.958;2023-12-22T08:51:12;3.23;;;0.50;;
9280;SDS011;4679;47.966;7.958;2023-12-22T08:53:15;3.63;;;0.60;;
9280;SDS011;4679;47.966;7.958;2023-12-22T08:55:16;1.37;;;0.33;;
9280;SDS011;4679;47.966;7.958;2023-12-22T08:57:18;4.93;;;0.63;;
9280;SDS011;4679;47.966;7.958;2023-12-22T08:59:19;3.37;;;0.50;;
9280;SDS011;4679;47.966;7.958;2023-12-22T09:01:21;7.80;;;1.10;;
9280;SDS011;4679;47.966;7.958;2023-12-22T09:03:23;3.37;;;0.87;;
9280;SDS011;4679;47.966;7.958;2023-12-22T09:05:24;5.87;;;0.97;;
9280;SDS011;4679;47.966;7.958;2023-12-22T09:07:25;5.97;;;0.77;;
9280;SDS011;4679;47.966;7.958;2023-12-22T09:09:28;3.90;;;0.70;;
9280;SDS011;4679;47.966;7.958;2023-12-22T09:11:30;2.87;;;0.70;;
9280;SDS011;4679;47.966;7.958;2023-12-22T09:13:31;4.27;;;0.90;;
9280;SDS011;4679;47.966;7.958;2023-12-22T09:15:33;1.17;;;0.57;;
9280;SDS011;4679;47.966;7.958;2023-12-22T09:17:36;1.07;;;0.53;;
9280;SDS011;4679;47.966;7.958;2023-12-22T09:19:37;3.13;;;0.40;;
9280;SDS011;4679;47.966;7.958;2023-12-22T09:21:39;2.77;;;0.50;;
9280;SDS011;4679;47.966;7.958;2023-12-22T09:23:42;8.17;;;2.80;;
9280;SDS011;4679;47.966;7.958;2023-12-22T09:25:47;4.03;;;0.70;;
9280;SDS011;4679;47.966;7.958;2023-12-22T09:27:48;3.93;;;0.90;;
9280;SDS011;4679;47.966;7.958;2023-12-22T09:29:50;4.07;;;0.70;;
9280;SDS011;4679;47.966;7.958;2023-12-22T09:31:51;2.87;;;0.70;;
9280;SDS011;4679;47.966;7.958;2023-12-22T09:33:52;4.20;;;0.60;;
9280;SDS011;4679;47.966;7.958;2023-12-22T09:35:53;3.17;;;0.70;;
9280;SDS011;4679;47.966;7.958;2023-12-22T09:37:54;2.40;;;0.70;;
9280;SDS011;4679;47.966;7.958;2023-12-22T09:39:56;5.37;;;0.80;;
9280;SDS011;4679;47.966;7.958;2023-12-22T09:41:59;11.80;;;1.03;;
9280;SDS011;4679;47.966;7.958;2023-12-22T09:44:01;2.20;;;0.70;;
9280;SDS011;4679;47.966;7.958;2023-12-22T09:46:05;4.70;;;0.90;;
9280;SDS011;4679;47.966;7.958;2023-12-22T09:48:07;3.43;;;0.80;;
9280;SDS011;4679;47.966;7.958;2023-12-22T09:50:11;7.70;;;1.37;;
9280;SDS011;4679;47.966;7.958;2023-12-22T09:52:13;5.40;;;0.80;;
9280;SDS011;4679;47.966;7.958;2023-12-22T09:54:17;2.67;;;0.67;;
9280;SDS011;4679;47.966;7.958;2023-12-22T09:56:19;3.83;;;1.00;;
9280;SDS011;4679;47.966;7.958;2023-12-22T09:58:23;5.37;;;0.63;;
9280;SDS011;4679;47.966;7.958;2023-12-22T10:00:25;3.27;;;0.80;;
9280;SDS011;4679;47.966;7.958;2023-12-22T10:02:29;6.87;;;1.20;;
9280;SDS011;4679;47.966;7.958;2023-12-22T10:04:33;5.00;;;1.13;;
9280;SDS011;4679;47.966;7.958;2023-12-22T10:06:34;6.60;;;0.83;;
9280;SDS011;4679;47.966;7.958;2023-12-22T10:08:36;8.57;;;1.00;;
9280;SDS011;4679;47.966;7.958;2023-12-22T10:10:40;3.47;;;0.80;;
9280;SDS011;4679;47.966;7.958;2023-12-22T10:12:41;6.53;;;1.30;;
9280;SDS011;4679;47.966;7.958;2023-12-22T10:14:48;4.33;;;0.90;;
9280;SDS011;4679;47.966;7.958;2023-12-22T10:16:49;6.57;;;1.00;;
9280;SDS011;4679;47.966;7.958;2023-12-22T10:18:51;2.10;;;0.60;;
9280;SDS011;4679;47.966;7.958;2023-12-22T10:20:52;3.97;;;0.60;;
9280;SDS011;4679;47.966;7.958;2023-12-22T10:22:53;2.33;;;0.70;;
9280;SDS011;4679;47.966;7.958;2023-12-22T10:24:55;1.73;;;0.73;;
9280;SDS011;4679;47.966;7.958;2023-12-22T10:26:55;4.13;;;0.57;;
9280;SDS011;4679;47.966;7.958;2023-12-22T10:28:57;3.10;;;0.73;;
9280;SDS011;4679;47.966;7.958;2023-12-22T10:31:00;3.27;;;0.50;;
9280;SDS011;4679;47.966;7.958;2023-12-22T10:33:06;2.40;;;0.40;;
9280;SDS011;4679;47.966;7.958;2023-12-22T10:35:07;1.23;;;0.40;;
9280;SDS011;4679;47.966;7.958;2023-12-22T10:37:09;2.07;;;0.77;;
9280;SDS011;4679;47.966;7.958;2023-12-22T10:39:12;2.10;;;0.50;;
9280;SDS011;4679;47.966;7.958;2023-12-22T10:41:14;2.50;;;0.57;;
9280;SDS011;4679;47.966;7.958;2023-12-22T10:43:16;0.60;;;0.37;;
9280;SDS011;4679;47.966;7.958;2023-12-22T10:45:17;1.33;;;0.40;;
9280;SDS011;4679;47.966;7.958;2023-12-22T10:47:20;1.80;;;0.40;;
9280;SDS011;4679;47.966;7.958;2023-12-22T10:49:22;1.17;;;0.23;;
9280;SDS011;4679;47.966;7.958;2023-12-22T10:51:25;0.50;;;0.30;;
9280;SDS011;4679;47.966;7.958;2023-12-22T10:53:26;2.30;;;0.27;;
9280;SDS011;4679;47.966;7.958;2023-12-22T10:55:28;0.60;;;0.20;;
9280;SDS011;4679;47.966;7.958;2023-12-22T10:57:31;0.40;;;0.30;;
9280;SDS011;4679;47.966;7.958;2023-12-22T10:59:38;1.33;;;0.50;;
9280;SDS011;4679;47.966;7.958;2023-12-22T11:01:46;1.50;;;0.10;;
9280;SDS011;4679;47.966;7.958;2023-12-22T11:03:56;1.23;;;0.70;;
9280;SDS011;4679;47.966;7.958;2023-12-22T11:06:01;0.90;;;0.57;;
9280;SDS011;4679;47.966;7.958;2023-12-22T11:08:05;1.30;;;0.90;;
9280;SDS011;4679;47.966;7.958;2023-12-22T11:10:12;1.00;;;0.50;;
9280;SDS011;4679;47.966;7.958;2023-12-22T11:12:15;2.27;;;0.70;;
9280;SDS011;4679;47.966;7.958;2023-12-22T11:14:16;0.70;;;0.40;;
9280;SDS011;4679;47.966;7.958;2023-12-22T11:16:17;0.70;;;0.10;;
9280;SDS011;4679;47.966;7.958;2023-12-22T11:18:21;0.63;;;0.40;;
9280;SDS011;4679;47.966;7.958;2023-12-22T11:20:25;1.33;;;0.30;;
9280;SDS011;4679;47.966;7.958;2023-12-22T11:22:28;0.37;;;0.20;;
9280;SDS011;4679;47.966;7.958;2023-12-22T11:24:32;0.20;;;0.20;;
9280;SDS011;4679;47.966;7.958;2023-12-22T11:26:35;0.43;;;0.10;;
9280;SDS011;4679;47.966;7.958;2023-12-22T11:28:37;1.10;;;0.10;;
9280;SDS011;4679;47.966;7.958;2023-12-22T11:30:41;1.17;;;0.20;;
9280;SDS011;4679;47.966;7.958;2023-12-22T11:32:44;2.00;;;0.80;;
9280;SDS011;4679;47.966;7.958;2023-12-22T11:34:48;0.40;;;0.10;;
9280;SDS011;4679;47.966;7.958;2023-12-22T11:36:50;2.47;;;0.57;;
9280;SDS011;4679;47.966;7.958;2023-12-22T11:38:55;1.17;;;0.07;;
9280;SDS011;4679;47.966;7.958;2023-12-22T11:40:56;0.13;;;0.10;;
9280;SDS011;4679;47.966;7.958;2023-12-22T11:42:59;0.10;;;0.10;;
9280;SDS011;4679;47.966;7.958;2023-12-22T11:45:01;0.30;;;0.30;;
9280;SDS011;4679;47.966;7.958;2023-12-22T11:47:04;0.57;;;0.10;;
9280;SDS011;4679;47.966;7.958;2023-12-22T11:49:06;0.20;;;0.20;;
9280;SDS011;4679;47.966;7.958;2023-12-22T11:51:11;0.20;;;0.20;;
9280;SDS011;4679;47.966;7.958;2023-12-22T11:53:21;0.30;;;0.30;;
9280;SDS011;4679;47.966;7.958;2023-12-22T12:00:52;1.17;;;0.63;;
9280;SDS011;4679;47.966;7.958;2023-12-22T12:02:53;0.40;;;0.20;;
9280;SDS011;4679;47.966;7.958;2023-12-22T12:04:57;1.37;;;0.40;;
9280;SDS011;4679;47.966;7.958;2023-12-22T12:07:00;0.57;;;0.57;;
9280;SDS011;4679;47.966;7.958;2023-12-22T12:09:23;0.50;;;0.30;;
9280;SDS011;4679;47.966;7.958;2023-12-22T12:14:11;0.10;;;0.10;;
9280;SDS011;4679;47.966;7.958;2023-12-22T12:16:16;0.90;;;0.20;;
9280;SDS011;4679;47.966;7.958;2023-12-22T12:18:21;0.60;;;0.30;;
9280;SDS011;4679;47.966;7.958;2023-12-22T12:20:24;0.57;;;0.40;;
9280;SDS011;4679;47.966;7.958;2023-12-22T12:22:26;0.33;;;0.13;;
9280;SDS011;4679;47.966;7.958;2023-12-22T12:24:30;0.10;;;0.10;;
9280;SDS011;4679;47.966;7.958;2023-12-22T12:26:32;0.33;;;0.33;;
9280;SDS011;4679;47.966;7.958;2023-12-22T12:28:35;0.20;;;0.10;;
9280;SDS011;4679;47.966;7.958;2023-12-22T12:30:37;0.10;;;0.10;;
9280;SDS011;4679;47.966;7.958;2023-12-22T12:32:41;0.00;;;0.00;;
9280;SDS011;4679;47.966;7.958;2023-12-22T12:34:45;0.70;;;0.20;;
9280;SDS011;4679;47.966;7.958;2023-12-22T12:36:48;0.13;;;0.10;;
9280;SDS011;4679;47.966;7.958;2023-12-22T12:38:53;0.40;;;0.33;;
9280;SDS011;4679;47.966;7.958;2023-12-22T12:40:58;0.10;;;0.10;;
9280;SDS011;4679;47.966;7.958;2023-12-22T12:42:59;0.07;;;0.07;;
9280;SDS011;4679;47.966;7.958;2023-12-22T12:45:02;1.03;;;0.10;;
9280;SDS011;4679;47.966;7.958;2023-12-22T12:47:11;0.10;;;0.10;;
9280;SDS011;4679;47.966;7.958;2023-12-22T12:49:12;2.50;;;0.63;;
9280;SDS011;4679;47.966;7.958;2023-12-22T12:51:15;0.53;;;0.40;;
9280;SDS011;4679;47.966;7.958;2023-12-22T12:53:16;0.10;;;0.10;;
9280;SDS011;4679;47.966;7.958;2023-12-22T12:55:18;0.30;;;0.30;;
9280;SDS011;4679;47.966;7.958;2023-12-22T12:57:21;0.10;;;0.10;;
9280;SDS011;4679;47.966;7.958;2023-12-22T12:59:23;0.00;;;0.00;;
9280;SDS011;4679;47.966;7.958;2023-12-22T13:01:25;0.20;;;0.20;;
9280;SDS011;4679;47.966;7.958;2023-12-22T13:03:26;0.50;;;0.50;;
9280;SDS011;4679;47.966;7.958;2023-12-22T13:05:28;0.53;;;0.53;;
9280;SDS011;4679;47.966;7.958;2023-12-22T13:07:30;0.93;;;0.10;;
9280;SDS011;4679;47.966;7.958;2023-12-22T13:09:31;1.90;;;0.00;;
9280;SDS011;4679;47.966;7.958;2023-12-22T13:11:33;0.10;;;0.10;;
9280;SDS011;4679;47.966;7.958;2023-12-22T13:13:41;0.27;;;0.13;;
9280;SDS011;4679;47.966;7.958;2023-12-22T13:15:43;0.20;;;0.10;;
9280;SDS011;4679;47.966;7.958;2023-12-22T13:17:45;0.10;;;0.10;;
9280;SDS011;4679;47.966;7.958;2023-12-22T13:19:46;0.37;;;0.10;;
9280;SDS011;4679;47.966;7.958;2023-12-22T13:21:48;0.00;;;0.00;;
9280;SDS011;4679;47.966;7.958;2023-12-22T13:26:17;0.00;;;0.00;;
9280;SDS011;4679;47.966;7.958;2023-12-22T13:28:25;0.10;;;0.10;;
9280;SDS011;4679;47.966;7.958;2023-12-22T13:30:34;0.00;;;0.00;;
9280;SDS011;4679;47.966;7.958;2023-12-22T13:32:36;0.63;;;0.00;;
9280;SDS011;4679;47.966;7.958;2023-12-22T13:34:38;0.03;;;0.00;;
9280;SDS011;4679;47.966;7.958;2023-12-22T13:36:47;0.67;;;0.00;;
9280;SDS011;4679;47.966;7.958;2023-12-22T13:38:49;0.00;;;0.00;;
9280;SDS011;4679;47.966;7.958;2023-12-22T13:40:50;0.00;;;0.00;;
9280;SDS011;4679;47.966;7.958;2023-12-22T13:42:54;0.00;;;0.00;;
9280;SDS011;4679;47.966;7.958;2023-12-22T13:44:57;0.10;;;0.10;;
9280;SDS011;4679;47.966;7.958;2023-12-22T13:47:03;0.10;;;0.10;;
9280;SDS011;4679;47.966;7.958;2023-12-22T13:49:05;0.00;;;0.00;;
9280;SDS011;4679;47.966;7.958;2023-12-22T13:51:08;0.00;;;0.00;;
9280;SDS011;4679;47.966;7.958;2023-12-22T13:53:10;0.07;;;0.07;;
9280;SDS011;4679;47.966;7.958;2023-12-22T13:55:12;0.20;;;0.10;;
9280;SDS011;4679;47.966;7.958;2023-12-22T13:57:19;0.00;;;0.00;;
9280;SDS011;4679;47.966;7.958;2023-12-22T13:59:30;0.00;;;0.00;;
9280;SDS011;4679;47.966;7.958;2023-12-22T14:01:32;0.00;;;0.00;;
9280;SDS011;4679;47.966;7.958;2023-12-22T14:03:35;0.00;;;0.00;;
9280;SDS011;4679;47.966;7.958;2023-12-22T14:05:36;0.10;;;0.03;;
9280;SDS011;4679;47.966;7.958;2023-12-22T14:07:38;0.10;;;0.00;;
9280;SDS011;4679;47.966;7.958;2023-12-22T14:09:39;0.00;;;0.00;;
9280;SDS011;4679;47.966;7.958;2023-12-22T14:11:40;0.20;;;0.10;;
9280;SDS011;4679;47.966;7.958;2023-12-22T14:13:42;0.10;;;0.00;;
9280;SDS011;4679;47.966;7.958;2023-12-22T14:15:44;0.20;;;0.10;;
9280;SDS011;4679;47.966;7.958;2023-12-22T14:17:45;0.10;;;0.00;;
9280;SDS011;4679;47.966;7.958;2023-12-22T14:19:49;0.00;;;0.00;;
9280;SDS011;4679;47.966;7.958;2023-12-22T14:21:50;0.07;;;0.07;;
9280;SDS011;4679;47.966;7.958;2023-12-22T14:23:52;0.00;;;0.00;;
9280;SDS011;4679;47.966;7.958;2023-12-22T14:25:53;0.00;;;0.00;;
9280;SDS011;4679;47.966;7.958;2023-12-22T14:27:54;0.30;;;0.00;;
9280;SDS011;4679;47.966;7.958;2023-12-22T14:29:57;0.10;;;0.00;;
9280;SDS011;4679;47.966;7.958;2023-12-22T14:31:59;0.10;;;0.10;;
9280;SDS011;4679;47.966;7.958;2023-12-22T14:34:00;0.10;;;0.00;;
9280;SDS011;4679;47.966;7.958;2023-12-22T14:36:03;0.00;;;0.00;;
9280;SDS011;4679;47.966;7.958;2023-12-22T14:38:05;0.00;;;0.00;;
9280;SDS011;4679;47.966;7.958;2023-12-22T14:40:07;0.00;;;0.00;;
9280;SDS011;4679;47.966;7.958;2023-12-22T14:42:09;0.10;;;0.10;;
9280;SDS011;4679;47.966;7.958;2023-12-22T14:44:10;0.00;;;0.00;;
9280;SDS011;4679;47.966;7.958;2023-12-22T14:46:12;0.03;;;0.00;;
9280;SDS011;4679;47.966;7.958;2023-12-22T14:48:12;0.00;;;0.00;;
9280;SDS011;4679;47.966;7.958;2023-12-22T14:50:14;0.20;;;0.20;;
9280;SDS011;4679;47.966;7.958;2023-12-22T14:52:16;0.30;;;0.30;;
9280;SDS011;4679;47.966;7.958;2023-12-22T14:54:17;0.20;;;0.20;;
9280;SDS011;4679;47.966;7.958;2023-12-22T14:56:19;0.23;;;0.20;;
9280;SDS011;4679;47.966;7.958;2023-12-22T14:58:20;0.10;;;0.10;;
9280;SDS011;4679;47.966;7.958;2023-12-22T15:00:22;0.27;;;0.20;;
9280;SDS011;4679;47.966;7.958;2023-12-22T15:02:23;0.20;;;0.20;;
9280;SDS011;4679;47.966;7.958;2023-12-22T15:04:25;0.10;;;0.10;;
9280;SDS011;4679;47.966;7.958;2023-12-22T15:06:26;0.00;;;0.00;;
9280;SDS011;4679;47.966;7.958;2023-12-22T15:08:28;0.40;;;0.20;;
9280;SDS011;4679;47.966;7.958;2023-12-22T15:10:30;0.20;;;0.20;;
9280;SDS011;4679;47.966;7.958;2023-12-22T15:12:31;0.20;;;0.20;;
9280;SDS011;4679;47.966;7.958;2023-12-22T15:14:36;0.30;;;0.27;;
9280;SDS011;4679;47.966;7.958;2023-12-22T15:16:40;0.17;;;0.17;;
9280;SDS011;4679;47.966;7.958;2023-12-22T15:18:41;0.20;;;0.20;;
9280;SDS011;4679;47.966;7.958;2023-12-22T15:20:42;0.10;;;0.10;;
9280;SDS011;4679;47.966;7.958;2023-12-22T15:22:44;0.20;;;0.20;;
9280;SDS011;4679;47.966;7.958;2023-12-22T15:24:46;0.20;;;0.20;;
9280;SDS011;4679;47.966;7.958;2023-12-22T15:26:47;0.70;;;0.10;;
9280;SDS011;4679;47.966;7.958;2023-12-22T15:28:49;0.37;;;0.27;;
9280;SDS011;4679;47.966;7.958;2023-12-22T15:30:50;0.27;;;0.20;;
9280;SDS011;4679;47.966;7.958;2023-12-22T15:32:52;0.30;;;0.30;;
9280;SDS011;4679;47.966;7.958;2023-12-22T15:34:53;2.60;;;1.57;;
9280;SDS011;4679;47.966;7.958;2023-12-22T15:36:55;1.27;;;0.30;;
9280;SDS011;4679;47.966;7.958;2023-12-22T15:38:57;0.10;;;0.10;;
9280;SDS011;4679;47.966;7.958;2023-12-22T15:41:00;0.20;;;0.20;;
9280;SDS011;4679;47.966;7.958;2023-12-22T15:43:03;0.13;;;0.13;;
9280;SDS011;4679;47.966;7.958;2023-12-22T15:45:05;0.60;;;0.43;;
9280;SDS011;4679;47.966;7.958;2023-12-22T15:47:07;0.20;;;0.20;;
9280;SDS011;4679;47.966;7.958;2023-12-22T15:49:09;0.60;;;0.60;;
9280;SDS011;4679;47.966;7.958;2023-12-22T15:51:11;4.10;;;1.93;;
9280;SDS011;4679;47.966;7.958;2023-12-22T15:53:12;1.13;;;0.60;;
9280;SDS011;4679;47.966;7.958;2023-12-22T15:55:15;4.10;;;0.83;;
9280;SDS011;4679;47.966;7.958;2023-12-22T15:57:18;2.43;;;0.63;;
9280;SDS011;4679;47.966;7.958;2023-12-22T15:59:20;2.67;;;0.70;;
9280;SDS011;4679;47.966;7.958;2023-12-22T16:01:25;0.90;;;0.43;;
9280;SDS011;4679;47.966;7.958;2023-12-22T16:03:27;0.40;;;0.20;;
9280;SDS011;4679;47.966;7.958;2023-12-22T16:05:28;0.60;;;0.30;;
9280;SDS011;4679;47.966;7.958;2023-12-22T16:07:30;2.90;;;0.70;;
9280;SDS011;4679;47.966;7.958;2023-12-22T16:09:33;0.50;;;0.40;;
9280;SDS011;4679;47.966;7.958;2023-12-22T16:11:35;0.10;;;0.10;;
9280;SDS011;4679;47.966;7.958;2023-12-22T16:13:38;0.10;;;0.10;;
9280;SDS011;4679;47.966;7.958;2023-12-22T16:15:40;0.10;;;0.10;;
9280;SDS011;4679;47.966;7.958;2023-12-22T16:17:42;0.10;;;0.10;;
9280;SDS011;4679;47.966;7.958;2023-12-22T16:19:43;0.00;;;0.00;;
9280;SDS011;4679;47.966;7.958;2023-12-22T16:21:46;0.10;;;0.10;;
9280;SDS011;4679;47.966;7.958;2023-12-22T16:23:52;0.10;;;0.00;;
9280;SDS011;4679;47.966;7.958;2023-12-22T16:25:54;0.63;;;0.50;;
9280;SDS011;4679;47.966;7.958;2023-12-22T16:27:56;0.20;;;0.13;;
9280;SDS011;4679;47.966;7.958;2023-12-22T16:29:59;0.00;;;0.00;;
9280;SDS011;4679;47.966;7.958;2023-12-22T16:32:00;0.10;;;0.10;;
9280;SDS011;4679;47.966;7.958;2023-12-22T16:34:02;0.10;;;0.10;;
9280;SDS011;4679;47.966;7.958;2023-12-22T16:36:07;0.20;;;0.20;;
9280;SDS011;4679;47.966;7.958;2023-12-22T16:38:09;0.37;;;0.37;;
9280;SDS011;4679;47.966;7.958;2023-12-22T16:40:11;0.60;;;0.40;;
9280;SDS011;4679;47.966;7.958;2023-12-22T16:42:13;0.20;;;0.20;;
9280;SDS011;4679;47.966;7.958;2023-12-22T16:44:14;0.10;;;0.10;;
9280;SDS011;4679;47.966;7.958;2023-12-22T16:46:17;0.50;;;0.20;;
9280;SDS011;4679;47.966;7.958;2023-12-22T16:48:18;0.20;;;0.20;;
9280;SDS011;4679;47.966;7.958;2023-12-22T16:50:19;0.20;;;0.20;;
9280;SDS011;4679;47.966;7.958;2023-12-22T16:52:21;0.53;;;0.20;;
9280;SDS011;4679;47.966;7.958;2023-12-22T16:54:22;0.30;;;0.30;;
9280;SDS011;4679;47.966;7.958;2023-12-22T16:56:24;0.20;;;0.20;;
9280;SDS011;4679;47.966;7.958;2023-12-22T16:58:25;0.60;;;0.20;;
9280;SDS011;4679;47.966;7.958;2023-12-22T17:00:27;0.33;;;0.30;;
9280;SDS011;4679;47.966;7.958;2023-12-22T17:02:30;0.30;;;0.20;;
9280;SDS011;4679;47.966;7.958;2023-12-22T17:04:30;1.37;;;0.70;;
9280;SDS011;4679;47.966;7.958;2023-12-22T17:06:32;0.40;;;0.40;;
9280;SDS011;4679;47.966;7.958;2023-12-22T17:08:33;0.30;;;0.30;;
9280;SDS011;4679;47.966;7.958;2023-12-22T17:10:35;0.30;;;0.30;;
9280;SDS011;4679;47.966;7.958;2023-12-22T17:12:37;0.70;;;0.20;;
9280;SDS011;4679;47.966;7.958;2023-12-22T17:14:38;1.57;;;0.60;;
9280;SDS011;4679;47.966;7.958;2023-12-22T17:16:40;0.27;;;0.27;;
9280;SDS011;4679;47.966;7.958;2023-12-22T17:18:43;0.63;;;0.40;;
9280;SDS011;4679;47.966;7.958;2023-12-22T17:20:44;0.43;;;0.30;;
9280;SDS011;4679;47.966;7.958;2023-12-22T17:22:46;0.70;;;0.47;;
9280;SDS011;4679;47.966;7.958;2023-12-22T17:24:48;0.20;;;0.20;;
9280;SDS011;4679;47.966;7.958;2023-12-22T17:26:49;0.10;;;0.10;;
9280;SDS011;4679;47.966;7.958;2023-12-22T17:28:50;0.10;;;0.10;;
9280;SDS011;4679;47.966;7.958;2023-12-22T17:30:52;0.40;;;0.20;;
9280;SDS011;4679;47.966;7.958;2023-12-22T17:32:53;0.20;;;0.20;;
9280;SDS011;4679;47.966;7.958;2023-12-22T17:34:56;0.20;;;0.20;;
9280;SDS011;4679;47.966;7.958;2023-12-22T17:36:58;0.40;;;0.27;;
9280;SDS011;4679;47.966;7.958;2023-12-22T17:38:59;0.20;;;0.20;;
9280;SDS011;4679;47.966;7.958;2023-12-22T17:41:01;0.30;;;0.20;;
9280;SDS011;4679;47.966;7.958;2023-12-22T17:43:03;0.20;;;0.20;;
9280;SDS011;4679;47.966;7.958;2023-12-22T17:45:06;0.30;;;0.30;;
9280;SDS011;4679;47.966;7.958;2023-12-22T17:47:08;0.40;;;0.20;;
9280;SDS011;4679;47.966;7.958;2023-12-22T17:49:10;0.20;;;0.10;;
9280;SDS011;4679;47.966;7.958;2023-12-22T17:51:12;0.20;;;0.20;;
9280;SDS011;4679;47.966;7.958;2023-12-22T17:53:13;0.93;;;0.30;;
9280;SDS011;4679;47.966;7.958;2023-12-22T17:55:15;0.20;;;0.20;;
9280;SDS011;4679;47.966;7.958;2023-12-22T17:57:17;0.20;;;0.20;;
9280;SDS011;4679;47.966;7.958;2023-12-22T17:59:18;0.30;;;0.30;;
9280;SDS011;4679;47.966;7.958;2023-12-22T18:01:19;0.20;;;0.20;;
9280;SDS011;4679;47.966;7.958;2023-12-22T18:03:22;0.60;;;0.20;;
9280;SDS011;4679;47.966;7.958;2023-12-22T18:05:25;0.20;;;0.20;;
9280;SDS011;4679;47.966;7.958;2023-12-22T18:07:28;0.20;;;0.20;;
9280;SDS011;4679;47.966;7.958;2023-12-22T18:09:28;0.37;;;0.37;;
9280;SDS011;4679;47.966;7.958;2023-12-22T18:11:30;0.40;;;0.40;;
9280;SDS011;4679;47.966;7.958;2023-12-22T18:13:32;0.30;;;0.17;;
9280;SDS011;4679;47.966;7.958;2023-12-22T18:15:35;0.20;;;0.20;;
9280;SDS011;4679;47.966;7.958;2023-12-22T18:17:37;0.80;;;0.20;;
9280;SDS011;4679;47.966;7.958;2023-12-22T18:19:38;0.70;;;0.40;;
9280;SDS011;4679;47.966;7.958;2023-12-22T18:21:40;0.67;;;0.30;;
9280;SDS011;4679;47.966;7.958;2023-12-22T18:23:43;0.87;;;0.40;;
9280;SDS011;4679;47.966;7.958;2023-12-22T18:25:45;0.80;;;0.30;;
9280;SDS011;4679;47.966;7.958;2023-12-22T18:27:46;0.30;;;0.20;;
9280;SDS011;4679;47.966;7.958;2023-12-22T18:29:48;0.40;;;0.30;;
9280;SDS011;4679;47.966;7.958;2023-12-22T18:31:49;0.20;;;0.20;;
9280;SDS011;4679;47.966;7.958;2023-12-22T18:33:51;0.33;;;0.30;;
9280;SDS011;4679;47.966;7.958;2023-12-22T18:35:51;0.57;;;0.13;;
9280;SDS011;4679;47.966;7.958;2023-12-22T18:37:55;1.03;;;0.40;;
9280;SDS011;4679;47.966;7.958;2023-12-22T18:39:58;0.20;;;0.20;;
9280;SDS011;4679;47.966;7.958;2023-12-22T18:41:59;0.50;;;0.40;;
9280;SDS011;4679;47.966;7.958;2023-12-22T18:44:01;0.30;;;0.30;;
9280;SDS011;4679;47.966;7.958;2023-12-22T18:46:03;0.13;;;0.13;;
9280;SDS011;4679;47.966;7.958;2023-12-22T18:48:06;0.30;;;0.30;;
9280;SDS011;4679;47.966;7.958;2023-12-22T18:50:08;0.20;;;0.20;;
9280;SDS011;4679;47.966;7.958;2023-12-22T18:52:10;1.20;;;0.60;;
9280;SDS011;4679;47.966;7.958;2023-12-22T18:54:11;0.10;;;0.10;;
9280;SDS011;4679;47.966;7.958;2023-12-22T18:56:14;0.20;;;0.20;;
9280;SDS011;4679;47.966;7.958;2023-12-22T18:58:20;0.20;;;0.10;;
9280;SDS011;4679;47.966;7.958;2023-12-22T19:00:22;0.10;;;0.10;;
9280;SDS011;4679;47.966;7.958;2023-12-22T19:02:23;0.27;;;0.27;;
9280;SDS011;4679;47.966;7.958;2023-12-22T19:04:25;0.50;;;0.10;;
9280;SDS011;4679;47.966;7.958;2023-12-22T19:06:26;0.43;;;0.23;;
9280;SDS011;4679;47.966;7.958;2023-12-22T19:08:28;0.20;;;0.20;;
9280;SDS011;4679;47.966;7.958;2023-12-22T19:10:28;1.57;;;0.40;;
9280;SDS011;4679;47.966;7.958;2023-12-22T19:12:31;0.10;;;0.10;;
9280;SDS011;4679;47.966;7.958;2023-12-22T19:14:33;0.30;;;0.30;;
9280;SDS011;4679;47.966;7.958;2023-12-22T19:16:33;0.80;;;0.20;;
9280;SDS011;4679;47.966;7.958;2023-12-22T19:18:35;0.30;;;0.20;;
9280;SDS011;4679;47.966;7.958;2023-12-22T19:20:36;1.60;;;0.20;;
9280;SDS011;4679;47.966;7.958;2023-12-22T19:22:37;0.23;;;0.23;;
9280;SDS011;4679;47.966;7.958;2023-12-22T19:24:38;0.20;;;0.20;;
9280;SDS011;4679;47.966;7.958;2023-12-22T19:26:40;0.43;;;0.20;;
9280;SDS011;4679;47.966;7.958;2023-12-22T19:28:43;0.23;;;0.20;;
9280;SDS011;4679;47.966;7.958;2023-12-22T19:30:44;0.50;;;0.20;;
9280;SDS011;4679;47.966;7.958;2023-12-22T19:32:46;0.20;;;0.20;;
9280;SDS011;4679;47.966;7.958;2023-12-22T19:34:48;0.60;;;0.20;;
9280;SDS011;4679;47.966;7.958;2023-12-22T19:36:50;0.20;;;0.17;;
9280;SDS011;4679;47.966;7.958;2023-12-22T19:38:52;0.30;;;0.20;;
9280;SDS011;4679;47.966;7.958;2023-12-22T19:40:53;1.40;;;0.20;;
9280;SDS011;4679;47.966;7.958;2023-12-22T19:42:55;0.20;;;0.20;;
9280;SDS011;4679;47.966;7.958;2023-12-22T19:44:57;0.20;;;0.20;;
9280;SDS011;4679;47.966;7.958;2023-12-22T19:46:59;0.20;;;0.20;;
9280;SDS011;4679;47.966;7.958;2023-12-22T19:48:59;0.40;;;0.10;;
9280;SDS011;4679;47.966;7.958;2023-12-22T19:51:01;1.43;;;0.20;;
9280;SDS011;4679;47.966;7.958;2023-12-22T19:53:03;0.87;;;0.10;;
9280;SDS011;4679;47.966;7.958;2023-12-22T19:55:05;0.83;;;0.10;;
9280;SDS011;4679;47.966;7.958;2023-12-22T19:57:07;0.63;;;0.10;;
9280;SDS011;4679;47.966;7.958;2023-12-22T19:59:08;1.10;;;0.30;;
9280;SDS011;4679;47.966;7.958;2023-12-22T20:01:11;0.50;;;0.10;;
9280;SDS011;4679;47.966;7.958;2023-12-22T20:03:13;0.30;;;0.13;;
9280;SDS011;4679;47.966;7.958;2023-12-22T20:05:15;0.00;;;0.00;;
9280;SDS011;4679;47.966;7.958;2023-12-22T20:07:16;1.30;;;0.10;;